Time;durP1;ratioP1;P1;durP2;ratioP2;P2;SDS_P1;SDS_P2;PMS_P1;PMS_P2;Temp;Humidity;BMP_temperature;BMP_pressure;BME280_temperature;BME280_humidity;BME280_pressure;Samples;Min_cycle;Max_cycle;Signal;HPM_P1;HPM_P2
2022/04/09 00:00:01;;;;;;;5.43;1.77;;;22.50;99.90;;;;;;5042484;28;20033;-68
2022/04/09 00:02:28;;;;;;;3.72;1.58;;;22.60;99.90;;;;;;5041298;28;20029;-71
2022/04/09 00:04:54;;;;;;;4.97;1.80;;;22.80;99.90;;;;;;5041785;28;20021;-67
2022/04/09 00:07:21;;;;;;;6.72;3.42;;;22.90;99.90;;;;;;5040857;28;20480;-71
2022/04/09 00:09:48;;;;;;;6.60;4.07;;;22.80;99.90;;;;;;5040863;28;20494;-71
2022/04/09 00:12:15;;;;;;;4.32;1.90;;;22.80;99.90;;;;;;5042059;28;20128;-71
2022/04/09 00:14:42;;;;;;;3.78;1.67;;;22.90;99.90;;;;;;5041669;28;20519;-68
2022/04/09 00:17:09;;;;;;;4.10;1.45;;;23.20;99.90;;;;;;5039395;28;20383;-68
2022/04/09 00:19:37;;;;;;;3.92;1.58;;;23.40;99.90;;;;;;5039771;28;20029;-68
2022/04/09 00:22:05;;;;;;;5.72;2.13;;;23.40;99.90;;;;;;5042323;28;20032;-68
2022/04/09 00:24:31;;;;;;;3.35;1.17;;;23.40;99.90;;;;;;5041242;28;20630;-70
2022/04/09 00:26:58;;;;;;;3.53;1.60;;;23.30;99.90;;;;;;5041881;28;20041;-70
2022/04/09 00:29:26;;;;;;;6.32;1.30;;;23.30;99.90;;;;;;5038432;28;20354;-69
2022/04/09 00:31:53;;;;;;;3.72;1.02;;;23.60;99.90;;;;;;5040249;28;20040;-71
2022/04/09 00:34:20;;;;;;;3.88;1.10;;;23.90;99.90;;;;;;5038805;28;20029;-68
2022/04/09 00:36:46;;;;;;;3.33;1.40;;;24.20;99.90;;;;;;5039295;28;20053;-71
2022/04/09 00:39:14;;;;;;;4.10;1.38;;;24.00;99.90;;;;;;5038687;28;20029;-74
2022/04/09 00:41:47;;;;;;;1.90;1.20;;;24.00;99.90;;;;;;5041146;28;20078;-71
2022/04/09 00:44:21;;;;;;;5.57;2.10;;;24.00;99.90;;;;;;5038795;28;20036;-72
2022/04/09 00:46:48;;;;;;;6.00;1.48;;;24.00;99.90;;;;;;5040086;28;20138;-70
2022/04/09 00:49:16;;;;;;;5.05;2.28;;;24.00;99.90;;;;;;5041135;28;20024;-73
2022/04/09 00:51:45;;;;;;;3.10;0.93;;;23.80;99.90;;;;;;5041529;28;20079;-73
2022/04/09 00:54:14;;;;;;;5.88;2.75;;;23.60;99.90;;;;;;5041462;28;20388;-70
2022/04/09 00:56:42;;;;;;;3.25;1.75;;;23.60;99.90;;;;;;5040010;28;20025;-68
2022/04/09 00:59:11;;;;;;;4.68;1.33;;;23.60;99.90;;;;;;5040196;28;20035;-70
2022/04/09 01:01:40;;;;;;;6.60;2.15;;;23.40;99.90;;;;;;5040688;28;20017;-75
2022/04/09 01:04:10;;;;;;;5.45;4.20;;;23.30;99.90;;;;;;5040655;28;20036;-69
2022/04/09 01:06:38;;;;;;;2.85;1.23;;;23.00;99.90;;;;;;5040056;28;20021;-67
2022/04/09 01:09:07;;;;;;;2.42;1.00;;;22.90;99.90;;;;;;5040896;28;20082;-69
2022/04/09 01:11:35;;;;;;;4.55;1.58;;;22.90;99.90;;;;;;5046486;28;20033;-72
2022/04/09 01:14:04;;;;;;;1.83;0.90;;;22.90;99.90;;;;;;5043624;28;20411;-68
2022/04/09 01:16:31;;;;;;;3.65;1.20;;;22.90;99.90;;;;;;5038150;28;20321;-73
2022/04/09 01:19:02;;;;;;;3.60;1.40;;;23.10;99.90;;;;;;5038152;28;20025;-69
2022/04/09 01:21:29;;;;;;;2.97;1.20;;;23.40;99.90;;;;;;5039226;28;20039;-68
2022/04/09 01:23:56;;;;;;;4.30;1.20;;;23.70;99.90;;;;;;5039310;28;20531;-69
2022/04/09 01:26:24;;;;;;;2.50;1.08;;;23.90;99.90;;;;;;5039342;28;20095;-70
2022/04/09 01:28:51;;;;;;;3.05;0.98;;;24.30;99.90;;;;;;5039371;28;20033;-69
2022/04/09 01:31:18;;;;;;;3.95;1.52;;;24.80;99.90;;;;;;5039881;28;20055;-75
2022/04/09 01:33:45;;;;;;;2.78;0.90;;;24.90;99.90;;;;;;5039131;28;20098;-71
2022/04/09 01:36:14;;;;;;;2.95;0.95;;;24.90;99.90;;;;;;5032016;28;20035;-77
2022/04/09 01:38:42;;;;;;;3.30;1.02;;;24.70;99.90;;;;;;5041770;28;20063;-73
2022/04/09 01:41:09;;;;;;;3.72;0.95;;;24.60;99.90;;;;;;5037562;28;20017;-70
2022/04/09 01:43:38;;;;;;;2.33;0.70;;;24.70;99.90;;;;;;5040478;28;20029;-69
2022/04/09 01:46:05;;;;;;;1.67;0.60;;;24.90;99.90;;;;;;4345048;28;10000839;-74
2022/04/09 01:48:32;;;;;;;1.58;0.80;;;24.90;99.90;;;;;;5039823;28;20025;-76
2022/04/09 01:50:59;;;;;;;2.88;1.00;;;24.60;99.90;;;;;;5040090;28;20424;-73
2022/04/09 01:53:26;;;;;;;4.00;0.80;;;24.40;99.90;;;;;;5036573;28;20103;-72
2022/04/09 01:55:55;;;;;;;1.65;0.57;;;24.20;99.90;;;;;;5035119;28;20460;-71
2022/04/09 01:58:22;;;;;;;2.67;1.00;;;23.90;99.90;;;;;;5034631;28;20037;-67
2022/04/09 02:00:51;;;;;;;3.38;0.80;;;23.60;99.90;;;;;;5036383;28;20027;-68
2022/04/09 02:03:18;;;;;;;1.98;0.80;;;23.80;99.90;;;;;;5031700;28;20022;-67
2022/04/09 02:05:46;;;;;;;2.80;0.88;;;24.00;99.90;;;;;;5033880;28;20028;-67
2022/04/09 02:08:13;;;;;;;3.65;0.88;;;24.00;99.90;;;;;;5032431;28;20819;-67
2022/04/09 02:10:40;;;;;;;2.08;0.77;;;23.90;99.90;;;;;;5031805;28;20025;-68
2022/04/09 02:13:19;;;;;;;4.55;0.85;;;24.00;99.90;;;;;;5031181;28;20075;-67
2022/04/09 02:15:46;;;;;;;5.57;3.10;;;24.30;99.90;;;;;;5029212;28;20036;-68
2022/04/09 02:18:13;;;;;;;18.30;11.82;;;24.40;99.90;;;;;;5031579;28;20071;-67
2022/04/09 02:20:40;;;;;;;9.20;6.18;;;24.60;99.90;;;;;;5038179;28;20064;-68
2022/04/09 02:23:07;;;;;;;2.58;0.73;;;25.00;99.90;;;;;;5042112;28;20029;-67
2022/04/09 02:25:34;;;;;;;6.78;3.53;;;25.00;99.90;;;;;;5043151;28;21034;-67
2022/04/09 02:28:01;;;;;;;8.75;5.47;;;25.30;99.90;;;;;;5047840;28;20585;-66
2022/04/09 02:30:28;;;;;;;3.10;1.33;;;25.60;99.90;;;;;;5044398;28;20023;-67
2022/04/09 02:32:55;;;;;;;4.72;1.55;;;25.70;99.90;;;;;;5047747;28;20479;-68
2022/04/09 02:35:28;;;;;;;3.70;1.27;;;25.90;99.90;;;;;;5045861;28;20108;-67
2022/04/09 02:37:56;;;;;;;3.15;0.98;;;25.80;99.90;;;;;;5041794;28;20578;-68
2022/04/09 02:40:24;;;;;;;3.90;1.10;;;25.80;99.90;;;;;;5048634;28;20237;-68
2022/04/09 02:42:51;;;;;;;4.75;1.70;;;25.80;99.90;;;;;;5048487;28;20033;-66
2022/04/09 02:45:18;;;;;;;2.88;1.00;;;25.70;99.90;;;;;;5046285;28;20108;-68
2022/04/09 02:47:45;;;;;;;3.42;1.17;;;25.70;99.90;;;;;;5047695;28;20024;-69
2022/04/09 02:50:12;;;;;;;5.03;1.55;;;25.60;99.90;;;;;;5053147;28;20033;-67
2022/04/09 02:52:41;;;;;;;5.38;1.80;;;25.60;99.90;;;;;;5053480;28;20544;-67
2022/04/09 02:55:08;;;;;;;4.00;2.38;;;25.80;99.90;;;;;;5045651;28;20075;-67
2022/04/09 02:57:37;;;;;;;4.32;1.73;;;25.70;99.90;;;;;;5044192;28;20021;-68
2022/04/09 03:00:07;;;;;;;6.63;1.80;;;25.40;99.90;;;;;;5052551;28;20480;-67
2022/04/09 03:02:37;;;;;;;2.08;1.10;;;25.20;99.90;;;;;;5045009;28;20111;-66
2022/04/09 03:05:06;;;;;;;5.90;1.42;;;24.80;99.90;;;;;;5033509;28;20068;-67
2022/04/09 03:07:33;;;;;;;4.60;1.67;;;24.70;99.90;;;;;;5041083;28;20033;-66
2022/04/09 03:10:01;;;;;;;5.30;1.70;;;24.60;99.90;;;;;;5050517;28;20480;-67
2022/04/09 03:12:28;;;;;;;9.73;2.45;;;24.40;99.90;;;;;;5044778;28;20024;-68
2022/04/09 03:14:55;;;;;;;4.30;1.40;;;24.00;99.90;;;;;;5045054;28;20091;-69
2022/04/09 03:17:22;;;;;;;4.28;1.73;;;23.50;99.90;;;;;;5048900;28;20491;-71
2022/04/09 03:19:49;;;;;;;3.13;1.10;;;23.00;99.90;;;;;;5045706;28;20036;-71
2022/04/09 03:22:16;;;;;;;5.18;1.30;;;22.60;99.90;;;;;;5045919;28;20056;-73
2022/04/09 03:24:42;;;;;;;3.17;1.10;;;22.40;99.90;;;;;;5048721;28;20033;-70
2022/04/09 03:27:09;;;;;;;4.68;1.40;;;22.40;99.90;;;;;;5052149;28;20392;-69
2022/04/09 03:29:36;;;;;;;3.55;0.82;;;22.40;99.90;;;;;;5061774;28;20175;-65
2022/04/09 03:32:04;;;;;;;5.93;1.30;;;22.30;99.90;;;;;;5057427;28;20013;-65
2022/04/09 03:34:31;;;;;;;3.20;1.00;;;22.40;99.90;;;;;;5054470;28;20086;-63
2022/04/09 03:36:58;;;;;;;2.55;1.02;;;22.40;99.90;;;;;;5055490;28;20395;-64
2022/04/09 03:39:25;;;;;;;3.15;1.00;;;22.50;99.90;;;;;;5058946;28;20467;-65
2022/04/09 03:41:52;;;;;;;2.42;1.10;;;22.70;99.90;;;;;;5055328;28;20047;-64
2022/04/09 03:44:18;;;;;;;3.20;1.35;;;22.90;99.90;;;;;;5053199;28;20115;-65
2022/04/09 03:46:45;;;;;;;3.33;1.30;;;23.10;99.90;;;;;;5055235;28;20059;-65
2022/04/09 03:49:12;;;;;;;4.13;1.08;;;23.30;99.90;;;;;;5052162;28;20036;-66
2022/04/09 03:51:39;;;;;;;2.70;1.17;;;23.30;99.90;;;;;;5055373;28;20021;-66
2022/04/09 03:54:06;;;;;;;2.58;0.75;;;23.30;99.90;;;;;;5047441;28;20029;-65
2022/04/09 03:56:34;;;;;;;3.00;1.00;;;23.30;99.90;;;;;;5050451;28;20032;-67
2022/04/09 03:59:02;;;;;;;3.15;0.82;;;23.50;99.90;;;;;;5047859;28;20032;-67
2022/04/09 04:01:29;;;;;;;2.47;0.90;;;23.60;99.90;;;;;;5054178;28;20082;-67
2022/04/09 04:03:57;;;;;;;1.48;0.80;;;23.40;99.90;;;;;;5051021;28;20484;-66
2022/04/09 04:06:24;;;;;;;4.50;2.15;;;23.30;99.90;;;;;;5048344;28;20028;-67
2022/04/09 04:08:51;;;;;;;4.55;1.50;;;23.40;99.90;;;;;;5051323;28;20128;-66
2022/04/09 04:11:19;;;;;;;4.60;1.92;;;23.30;99.90;;;;;;5050574;28;20021;-67
2022/04/09 04:13:46;;;;;;;3.72;1.73;;;23.10;99.90;;;;;;5050298;28;20036;-67
2022/04/09 04:16:13;;;;;;;3.42;1.40;;;22.90;99.90;;;;;;5052885;28;20024;-67
2022/04/09 04:18:40;;;;;;;2.60;0.95;;;22.80;99.90;;;;;;5055703;28;20031;-66
2022/04/09 04:21:07;;;;;;;5.03;1.13;;;22.80;99.90;;;;;;5053107;28;20025;-66
2022/04/09 04:23:35;;;;;;;6.22;3.20;;;22.60;99.90;;;;;;5050702;28;20116;-66
2022/04/09 04:26:03;;;;;;;4.80;2.20;;;22.40;99.90;;;;;;5049642;28;20755;-66
2022/04/09 04:28:30;;;;;;;4.15;2.30;;;22.30;99.90;;;;;;5046046;28;20033;-66
2022/04/09 04:30:57;;;;;;;4.97;2.40;;;22.20;99.90;;;;;;5049991;28;20021;-66
2022/04/09 04:33:24;;;;;;;4.35;2.67;;;22.10;99.90;;;;;;5048761;28;20372;-65
2022/04/09 04:35:51;;;;;;;6.20;1.73;;;22.00;99.90;;;;;;5047115;28;20479;-66
2022/04/09 04:38:18;;;;;;;3.50;2.08;;;22.00;99.90;;;;;;5047639;28;20052;-65
2022/04/09 04:40:45;;;;;;;6.93;3.80;;;22.00;99.90;;;;;;5048865;28;20035;-65
2022/04/09 04:43:11;;;;;;;6.40;2.20;;;22.00;99.90;;;;;;5046773;28;20086;-66
2022/04/09 04:45:39;;;;;;;4.35;1.60;;;21.90;99.90;;;;;;5046728;28;20113;-65
2022/04/09 04:48:06;;;;;;;5.25;1.80;;;21.80;99.90;;;;;;5051310;28;20517;-65
2022/04/09 04:50:33;;;;;;;4.32;1.10;;;21.80;99.90;;;;;;5058871;28;20329;-66
2022/04/09 04:53:00;;;;;;;3.58;1.45;;;21.90;99.90;;;;;;5050253;28;20056;-69
2022/04/09 04:55:28;;;;;;;3.45;1.30;;;22.00;99.90;;;;;;5046825;28;20636;-69
2022/04/09 04:57:55;;;;;;;3.58;1.20;;;22.00;99.90;;;;;;5056461;28;20108;-65
2022/04/09 05:00:24;;;;;;;3.58;1.10;;;21.90;99.90;;;;;;5054207;28;20028;-67
2022/04/09 05:02:51;;;;;;;5.80;1.42;;;21.90;99.90;;;;;;5047367;28;20065;-68
2022/04/09 05:05:19;;;;;;;3.25;1.10;;;21.80;99.90;;;;;;5046331;28;20043;-66
2022/04/09 05:07:49;;;;;;;4.80;1.02;;;21.80;99.90;;;;;;5046721;28;20029;-67
2022/04/09 05:10:18;;;;;;;3.70;1.23;;;21.80;99.90;;;;;;5050447;28;20028;-66
2022/04/09 05:12:46;;;;;;;2.95;1.27;;;21.80;99.90;;;;;;5047280;28;20032;-65
2022/04/09 05:15:15;;;;;;;3.72;1.00;;;22.00;99.90;;;;;;5045253;28;20025;-66
2022/04/09 05:17:42;;;;;;;5.25;1.40;;;22.10;99.90;;;;;;5050262;28;20028;-64
2022/04/09 05:20:12;;;;;;;4.63;1.30;;;22.20;99.90;;;;;;5048007;28;20068;-63
2022/04/09 05:22:43;;;;;;;1.73;0.90;;;22.40;99.90;;;;;;5048124;28;20083;-66
2022/04/09 05:25:13;;;;;;;4.32;1.25;;;22.70;99.90;;;;;;5045754;28;20036;-65
2022/04/09 05:27:43;;;;;;;2.22;0.80;;;22.80;99.90;;;;;;5048663;28;20024;-64
2022/04/09 05:30:10;;;;;;;2.10;1.10;;;22.90;99.90;;;;;;5046222;28;20029;-66
2022/04/09 05:32:39;;;;;;;3.88;1.50;;;23.10;99.90;;;;;;5051217;28;20031;-67
2022/04/09 05:35:07;;;;;;;6.60;1.58;;;23.50;99.90;;;;;;5048636;28;20551;-67
2022/04/09 05:37:34;;;;;;;4.65;1.30;;;23.90;99.90;;;;;;5053018;28;20053;-68
2022/04/09 05:40:05;;;;;;;2.17;0.85;;;24.30;99.90;;;;;;5048915;28;20025;-67
2022/04/09 05:42:32;;;;;;;4.53;1.23;;;24.40;99.90;;;;;;5045462;28;20396;-72
2022/04/09 05:44:59;;;;;;;2.08;1.10;;;24.40;99.90;;;;;;5042897;28;20198;-72
2022/04/09 05:47:27;;;;;;;5.13;1.10;;;24.50;99.90;;;;;;5043461;28;20065;-69
2022/04/09 05:49:54;;;;;;;3.65;1.25;;;24.80;99.90;;;;;;5047787;28;20192;-66
2022/04/09 05:52:21;;;;;;;3.50;1.38;;;25.20;99.90;;;;;;5046850;28;20025;-69
2022/04/09 05:54:48;;;;;;;4.50;1.73;;;25.50;99.90;;;;;;5042763;28;20749;-68
2022/04/09 05:57:16;;;;;;;2.90;1.30;;;25.40;99.90;;;;;;5044146;28;20021;-68
2022/04/09 05:59:44;;;;;;;5.80;1.48;;;25.20;99.90;;;;;;5050676;28;20020;-68
2022/04/09 06:02:11;;;;;;;4.97;1.33;;;25.00;99.90;;;;;;5044345;28;20083;-68
2022/04/09 06:04:38;;;;;;;4.43;1.45;;;24.60;99.90;;;;;;5046772;28;20403;-67
2022/04/09 06:07:05;;;;;;;4.32;1.25;;;24.60;99.90;;;;;;5048018;28;20029;-66
2022/04/09 06:09:31;;;;;;;5.32;1.38;;;24.80;99.90;;;;;;5055151;28;20023;-67
2022/04/09 06:11:58;;;;;;;2.85;1.30;;;25.10;99.90;;;;;;5048433;28;20021;-67
2022/04/09 06:14:25;;;;;;;4.97;1.45;;;25.00;99.90;;;;;;5048070;28;20019;-66
2022/04/09 06:16:52;;;;;;;5.07;1.58;;;24.70;99.90;;;;;;5046757;28;20112;-68
2022/04/09 06:19:19;;;;;;;5.90;1.67;;;24.30;99.90;;;;;;5051119;28;20028;-66
2022/04/09 06:21:46;;;;;;;2.97;1.30;;;23.90;99.90;;;;;;5050567;28;20127;-70
2022/04/09 06:24:13;;;;;;;8.20;1.50;;;23.50;99.90;;;;;;5048143;28;20033;-67
2022/04/09 06:26:40;;;;;;;3.78;1.45;;;23.30;99.90;;;;;;5039494;28;20509;-70
2022/04/09 06:29:07;;;;;;;3.50;1.20;;;22.90;99.90;;;;;;5044338;28;20074;-66
2022/04/09 06:31:34;;;;;;;5.85;1.17;;;22.70;99.90;;;;;;5047804;28;20017;-67
2022/04/09 06:34:01;;;;;;;8.38;1.83;;;22.60;99.90;;;;;;5043827;28;20029;-69
2022/04/09 06:36:28;;;;;;;5.15;2.33;;;22.40;99.90;;;;;;5048793;28;20484;-71
2022/04/09 06:38:55;;;;;;;7.72;3.03;;;22.10;99.90;;;;;;5047065;28;20403;-71
2022/04/09 06:41:22;;;;;;;5.55;1.58;;;21.70;99.90;;;;;;5047886;28;20029;-69
2022/04/09 06:43:49;;;;;;;6.95;1.38;;;21.40;99.90;;;;;;5040849;28;20067;-67
2022/04/09 06:46:17;;;;;;;8.23;1.73;;;21.30;99.90;;;;;;5044940;28;20445;-66
2022/04/09 06:48:44;;;;;;;6.85;1.45;;;21.10;99.90;;;;;;5045854;28;20025;-64
2022/04/09 06:51:11;;;;;;;8.05;1.77;;;20.90;99.90;;;;;;5041682;28;20052;-67
2022/04/09 06:53:38;;;;;;;5.03;1.25;;;20.90;99.90;;;;;;5040562;28;20024;-66
2022/04/09 06:56:05;;;;;;;7.60;1.63;;;20.80;99.90;;;;;;5048565;28;20092;-72
2022/04/09 06:58:34;;;;;;;4.50;1.42;;;20.70;99.90;;;;;;5043976;28;20024;-71
2022/04/09 07:01:02;;;;;;;9.80;2.10;;;20.80;99.90;;;;;;5046448;28;20929;-64
2022/04/09 07:03:29;;;;;;;13.68;2.42;;;20.80;99.90;;;;;;5048565;28;20055;-66
2022/04/09 07:05:56;;;;;;;9.15;2.60;;;20.70;99.90;;;;;;5047686;28;20021;-64
2022/04/09 07:08:23;;;;;;;9.02;2.22;;;20.70;99.90;;;;;;5049591;28;20032;-65
2022/04/09 07:10:50;;;;;;;8.43;2.70;;;20.70;99.90;;;;;;5045384;28;20064;-69
2022/04/09 07:13:17;;;;;;;9.25;2.40;;;20.70;99.90;;;;;;5048923;28;20108;-68
2022/04/09 07:15:44;;;;;;;13.05;3.13;;;20.60;99.90;;;;;;5044417;28;20020;-69
2022/04/09 07:18:11;;;;;;;16.63;7.03;;;20.60;99.90;;;;;;5051976;28;20036;-65
2022/04/09 07:20:40;;;;;;;10.40;2.53;;;20.40;99.90;;;;;;5051318;28;20630;-71
2022/04/09 07:23:08;;;;;;;8.93;4.05;;;20.30;99.90;;;;;;5049750;28;20029;-68
2022/04/09 07:25:35;;;;;;;7.05;2.50;;;20.20;99.90;;;;;;5045925;28;20033;-65
2022/04/09 07:28:02;;;;;;;7.85;2.10;;;20.30;99.90;;;;;;5056504;28;20025;-69
2022/04/09 07:30:29;;;;;;;6.13;2.00;;;20.20;99.90;;;;;;5051710;28;20017;-65
2022/04/09 07:32:57;;;;;;;4.78;1.67;;;20.10;99.90;;;;;;5046077;28;20025;-65
2022/04/09 07:35:24;;;;;;;6.32;2.45;;;20.20;99.90;;;;;;5048837;28;20752;-65
2022/04/09 07:38:00;;;;;;;4.88;1.50;;;20.20;99.90;;;;;;5048361;28;20400;-68
2022/04/09 07:40:30;;;;;;;9.80;2.40;;;20.10;99.90;;;;;;5052781;28;20035;-70
2022/04/09 07:42:59;;;;;;;10.05;2.08;;;20.00;99.90;;;;;;5040291;28;20625;-71
2022/04/09 07:45:27;;;;;;;9.30;2.08;;;20.00;99.90;;;;;;5049156;28;20399;-64
2022/04/09 07:47:56;;;;;;;7.28;2.00;;;20.00;99.90;;;;;;5043451;28;20095;-70
2022/04/09 07:50:25;;;;;;;7.25;2.25;;;20.00;99.90;;;;;;5054349;28;20108;-70
2022/04/09 07:52:53;;;;;;;9.85;5.25;;;20.00;99.90;;;;;;5048540;28;20048;-70
2022/04/09 07:55:20;;;;;;;9.93;3.80;;;20.00;99.90;;;;;;5043182;28;20033;-70
2022/04/09 07:57:54;;;;;;;8.35;2.63;;;20.00;99.90;;;;;;5044046;28;20115;-68
2022/04/09 08:00:24;;;;;;;7.50;1.80;;;19.90;99.90;;;;;;5051034;28;20083;-64
2022/04/09 08:02:51;;;;;;;6.32;2.05;;;19.90;99.90;;;;;;5049312;28;20136;-70
2022/04/09 08:05:18;;;;;;;8.05;1.48;;;19.90;99.90;;;;;;5039960;28;20120;-68
2022/04/09 08:07:47;;;;;;;5.68;1.55;;;19.80;99.90;;;;;;5043391;28;20025;-69
2022/04/09 08:10:15;;;;;;;4.22;1.85;;;19.80;99.90;;;;;;5051590;28;20419;-64
2022/04/09 08:12:42;;;;;;;2.90;1.42;;;19.80;99.90;;;;;;5049256;28;20510;-65
2022/04/09 08:15:11;;;;;;;9.32;2.70;;;19.80;99.90;;;;;;5050405;28;20025;-64
2022/04/09 08:17:39;;;;;;;7.78;2.15;;;19.80;99.90;;;;;;5057867;28;20144;-67
2022/04/09 08:20:08;;;;;;;10.80;2.42;;;19.80;99.90;;;;;;5052665;28;20565;-65
2022/04/09 08:22:35;;;;;;;6.88;2.00;;;19.70;99.90;;;;;;5048676;28;20040;-65
2022/04/09 08:25:02;;;;;;;7.22;2.10;;;19.70;99.90;;;;;;5045400;28;20025;-64
2022/04/09 08:27:29;;;;;;;5.93;1.88;;;19.60;99.90;;;;;;5052850;28;20087;-68
2022/04/09 08:29:56;;;;;;;6.93;2.15;;;19.50;99.90;;;;;;5057603;28;20056;-64
2022/04/09 08:32:25;;;;;;;6.28;1.95;;;19.50;99.90;;;;;;5052609;28;20041;-68
2022/04/09 08:34:53;;;;;;;5.65;2.20;;;19.50;99.90;;;;;;5046053;28;20673;-67
2022/04/09 08:37:22;;;;;;;6.53;1.85;;;19.40;99.90;;;;;;5045091;28;20139;-72
2022/04/09 08:39:50;;;;;;;8.00;2.08;;;19.40;99.90;;;;;;5041225;28;20024;-69
2022/04/09 08:42:18;;;;;;;5.88;1.92;;;19.30;99.90;;;;;;5044097;28;20520;-67
2022/04/09 08:44:45;;;;;;;8.02;2.42;;;19.30;99.90;;;;;;5040864;28;20036;-70
2022/04/09 08:47:15;;;;;;;9.10;2.15;;;19.30;99.90;;;;;;5040552;28;20444;-69
2022/04/09 08:49:47;;;;;;;8.75;2.30;;;19.40;99.90;;;;;;5042549;28;20021;-67
2022/04/09 08:52:16;;;;;;;5.97;1.77;;;19.40;99.90;;;;;;5042772;28;20106;-66
2022/04/09 08:54:44;;;;;;;7.43;2.35;;;19.30;99.90;;;;;;5042135;28;20347;-68
2022/04/09 08:57:11;;;;;;;6.50;2.33;;;19.40;99.90;;;;;;5041016;28;20021;-69
2022/04/09 08:59:38;;;;;;;6.03;2.17;;;19.40;99.90;;;;;;5039248;28;20555;-67
2022/04/09 09:02:06;;;;;;;7.28;2.33;;;19.30;99.90;;;;;;5041907;28;20036;-67
2022/04/09 09:04:33;;;;;;;8.77;2.50;;;19.30;99.90;;;;;;5039813;28;20037;-68
2022/04/09 09:07:20;;;;;;;8.48;2.88;;;19.40;99.90;;;;;;5041066;28;20550;-71
2022/04/09 09:09:50;;;;;;;10.98;3.38;;;19.40;99.90;;;;;;5039093;28;20352;-67
2022/04/09 09:12:31;;;;;;;7.70;3.20;;;19.40;99.90;;;;;;5038773;28;20157;-69
2022/04/09 09:14:58;;;;;;;13.15;3.00;;;19.30;99.90;;;;;;5041220;28;20025;-68
2022/04/09 09:17:30;;;;;;;7.97;2.88;;;19.30;99.90;;;;;;5041820;28;20028;-71
2022/04/09 09:19:57;;;;;;;9.35;2.72;;;19.30;99.90;;;;;;5040757;28;20076;-73
2022/04/09 09:22:42;;;;;;;8.50;3.15;;;19.30;99.90;;;;;;5040224;28;20036;-72
2022/04/09 09:25:13;;;;;;;10.02;5.28;;;19.20;99.90;;;;;;5040156;28;20024;-70
2022/04/09 09:27:41;;;;;;;13.55;3.85;;;19.20;99.90;;;;;;5040515;28;20080;-71
2022/04/09 09:30:11;;;;;;;8.18;3.17;;;19.20;99.90;;;;;;5041430;28;20029;-71
2022/04/09 09:32:41;;;;;;;6.97;2.58;;;19.10;99.90;;;;;;5039553;28;21484;-70
2022/04/09 09:35:14;;;;;;;7.80;2.53;;;19.10;99.90;;;;;;5040504;28;20055;-68
2022/04/09 09:37:42;;;;;;;12.52;2.90;;;19.10;99.90;;;;;;5040254;28;20479;-67
2022/04/09 09:40:10;;;;;;;7.40;2.40;;;19.20;99.90;;;;;;5041434;28;20048;-67
2022/04/09 09:42:36;;;;;;;9.25;2.90;;;19.40;99.90;;;;;;5040040;28;20033;-68
2022/04/09 09:45:05;;;;;;;5.45;2.00;;;19.30;99.90;;;;;;5039100;28;20028;-71
2022/04/09 09:47:32;;;;;;;8.75;2.40;;;19.40;99.90;;;;;;5039391;28;20471;-67
2022/04/09 09:49:59;;;;;;;7.50;2.10;;;19.40;99.90;;;;;;5040358;28;20122;-68
2022/04/09 09:52:30;;;;;;;9.13;2.40;;;19.50;99.90;;;;;;5040206;28;20025;-68
2022/04/09 09:55:13;;;;;;;9.68;2.53;;;19.50;99.90;;;;;;5040322;28;20032;-69
2022/04/09 09:57:41;;;;;;;11.27;2.92;;;19.40;99.90;;;;;;5040067;28;20113;-67
2022/04/09 10:00:11;;;;;;;7.85;2.70;;;19.30;99.90;;;;;;5039327;28;20701;-65
2022/04/09 10:02:39;;;;;;;11.30;2.63;;;19.20;99.90;;;;;;5040043;28;20109;-68
2022/04/09 10:05:07;;;;;;;11.32;2.55;;;19.20;99.90;;;;;;5039746;28;20040;-67
2022/04/09 10:07:35;;;;;;;7.53;2.00;;;19.10;99.90;;;;;;5040459;28;20035;-64
2022/04/09 10:10:06;;;;;;;8.43;2.17;;;19.00;99.90;;;;;;5039357;28;20505;-67
2022/04/09 10:12:42;;;;;;;6.88;2.20;;;18.90;99.90;;;;;;5040124;28;20025;-65
2022/04/09 10:15:10;;;;;;;8.35;2.45;;;18.80;99.90;;;;;;5039556;28;20029;-64
2022/04/09 10:17:39;;;;;;;8.02;2.67;;;18.80;99.90;;;;;;5040401;28;20131;-66
2022/04/09 10:20:07;;;;;;;7.15;1.95;;;18.70;99.90;;;;;;5039558;28;20443;-65
2022/04/09 10:22:40;;;;;;;8.57;1.80;;;18.70;99.90;;;;;;5039589;28;20025;-65
2022/04/09 10:25:08;;;;;;;7.65;2.33;;;18.70;99.90;;;;;;5040531;28;20839;-65
2022/04/09 10:27:39;;;;;;;9.77;2.08;;;18.70;99.90;;;;;;5039264;28;20636;-65
2022/04/09 10:30:28;;;;;;;10.68;2.78;;;18.70;99.90;;;;;;5040499;28;20082;-68
2022/04/09 10:32:59;;;;;;;6.65;2.40;;;18.70;99.90;;;;;;5040317;28;20029;-68
2022/04/09 10:35:40;;;;;;;9.07;2.40;;;18.60;99.90;;;;;;5041168;28;20037;-68
2022/04/09 10:38:09;;;;;;;8.30;2.70;;;18.60;99.90;;;;;;4726393;22;10001854;-67
2022/04/09 10:40:57;;;;;;;10.07;2.42;;;18.60;99.90;;;;;;5019053;28;20034;-66
2022/04/09 10:43:28;;;;;;;8.40;2.10;;;18.60;99.90;;;;;;5017022;28;20932;-67
2022/04/09 10:46:19;;;;;;;13.30;2.30;;;18.60;99.90;;;;;;5020624;28;20025;-67
2022/04/09 10:48:48;;;;;;;10.82;2.10;;;18.60;99.90;;;;;;5020499;28;20472;-67
2022/04/09 10:51:18;;;;;;;7.28;2.08;;;18.60;99.90;;;;;;5023483;28;20029;-68
2022/04/09 10:53:50;;;;;;;7.72;3.05;;;18.50;99.90;;;;;;5024479;28;20018;-66
2022/04/09 10:56:24;;;;;;;6.43;2.90;;;18.40;99.90;;;;;;5024948;28;20040;-69
2022/04/09 10:59:09;;;;;;;8.88;2.28;;;18.30;99.90;;;;;;5022086;28;20028;-69
2022/04/09 11:01:51;;;;;;;6.32;2.05;;;18.30;99.90;;;;;;5025493;28;20025;-68
2022/04/09 11:07:21;;;;;;;10.63;2.70;;;18.20;99.90;;;;;;5022513;28;20116;-65
2022/04/09 11:09:57;;;;;;;7.10;2.38;;;18.20;99.90;;;;;;5023841;28;20021;-67
2022/04/09 11:12:41;;;;;;;9.48;2.15;;;18.20;99.90;;;;;;5022185;28;20030;-69
2022/04/09 11:15:10;;;;;;;10.88;3.25;;;18.20;99.90;;;;;;5021181;28;20104;-68
2022/04/09 11:17:47;;;;;;;11.63;3.58;;;18.10;99.90;;;;;;5020606;28;20017;-69
2022/04/09 11:20:21;;;;;;;13.32;2.75;;;18.00;99.90;;;;;;5021891;28;20326;-66
2022/04/09 11:22:52;;;;;;;19.95;9.75;;;18.00;99.90;;;;;;5022936;28;20032;-68
2022/04/09 11:25:27;;;;;;;14.23;4.72;;;18.00;99.90;;;;;;5022324;28;20036;-66
2022/04/09 11:28:06;;;;;;;8.40;2.65;;;18.00;99.90;;;;;;5020203;28;20882;-66
2022/04/09 11:30:33;;;;;;;12.02;2.42;;;17.90;99.90;;;;;;5024077;28;20029;-66
2022/04/09 11:33:00;;;;;;;10.30;2.33;;;17.80;99.90;;;;;;5023249;28;20014;-67
2022/04/09 11:35:34;;;;;;;11.07;2.55;;;17.80;99.90;;;;;;5025938;28;20078;-68
2022/04/09 11:38:01;;;;;;;10.25;2.28;;;17.70;99.90;;;;;;5019790;28;20045;-66
2022/04/09 11:40:28;;;;;;;9.63;2.55;;;17.60;99.90;;;;;;5024824;28;20021;-68
2022/04/09 11:42:57;;;;;;;9.00;2.17;;;17.70;99.90;;;;;;5021847;28;20025;-66
2022/04/09 11:45:27;;;;;;;9.45;2.88;;;17.60;99.90;;;;;;5022323;28;20640;-67
2022/04/09 11:47:59;;;;;;;8.90;2.22;;;17.60;99.90;;;;;;5017693;28;20022;-68
2022/04/09 11:50:31;;;;;;;11.35;2.58;;;17.60;99.90;;;;;;5028578;28;20018;-68
2022/04/09 11:53:11;;;;;;;7.47;2.08;;;17.60;99.90;;;;;;5020470;28;20041;-66
2022/04/09 11:55:39;;;;;;;9.15;2.35;;;17.60;99.90;;;;;;5023476;28;20025;-66
2022/04/09 11:58:08;;;;;;;6.80;2.63;;;17.50;99.90;;;;;;5021841;28;20024;-66
2022/04/09 12:00:42;;;;;;;12.50;2.30;;;17.40;99.90;;;;;;5020961;28;20029;-67
2022/04/09 12:03:09;;;;;;;6.45;2.15;;;17.50;99.90;;;;;;5023060;28;20463;-68
2022/04/09 12:05:37;;;;;;;10.35;2.80;;;17.50;99.90;;;;;;5025770;28;20021;-67
2022/04/09 12:08:18;;;;;;;7.55;2.45;;;17.60;99.90;;;;;;5025747;28;20021;-68
2022/04/09 12:10:57;;;;;;;8.70;2.50;;;17.50;99.90;;;;;;5020528;28;20947;-66
2022/04/09 12:13:38;;;;;;;9.73;2.45;;;17.50;99.90;;;;;;5022135;28;20022;-68
2022/04/09 12:16:13;;;;;;;14.63;2.85;;;17.50;99.90;;;;;;5022319;28;20033;-68
2022/04/09 12:18:41;;;;;;;10.38;2.90;;;17.50;99.90;;;;;;5024483;28;20025;-66
2022/04/09 12:21:28;;;;;;;10.70;2.80;;;17.60;99.90;;;;;;5021222;28;20025;-67
2022/04/09 12:24:05;;;;;;;5.60;2.13;;;17.70;99.90;;;;;;5026217;28;20075;-66
2022/04/09 12:26:40;;;;;;;10.35;2.63;;;17.80;99.90;;;;;;5024592;28;20119;-67
2022/04/09 12:29:30;;;;;;;5.85;2.17;;;17.80;99.90;;;;;;5022510;28;20602;-66
2022/04/09 12:32:20;;;;;;;5.00;1.63;;;17.80;99.90;;;;;;5022573;28;20028;-67
2022/04/09 12:34:58;;;;;;;8.82;2.53;;;17.80;99.90;;;;;;5025840;28;20112;-66
2022/04/09 12:37:26;;;;;;;8.85;2.70;;;17.70;99.90;;;;;;5020354;28;20445;-67
2022/04/09 12:40:15;;;;;;;5.55;1.95;;;17.80;99.90;;;;;;5025294;28;20029;-68
2022/04/09 12:42:42;;;;;;;8.73;2.28;;;17.90;99.90;;;;;;5021567;28;20496;-67
2022/04/09 12:45:15;;;;;;;8.02;2.45;;;17.90;99.90;;;;;;5019860;28;20029;-66
2022/04/09 12:47:43;;;;;;;12.43;2.35;;;17.90;99.90;;;;;;5023932;28;20068;-66
2022/04/09 12:50:30;;;;;;;9.25;2.47;;;18.00;99.90;;;;;;5018980;28;20029;-66
2022/04/09 12:53:03;;;;;;;10.85;2.75;;;18.00;99.90;;;;;;5024593;28;20025;-68
2022/04/09 12:55:30;;;;;;;7.15;2.15;;;18.00;99.90;;;;;;5023581;28;20026;-66
2022/04/09 12:57:58;;;;;;;8.95;2.67;;;18.10;99.90;;;;;;5002124;28;20136;-65